sensor_id;sensor_type;location;lat;lon;timestamp;temperature;humidity
16485;DHT22;8353;47.856;12.344;2023-02-08T00:02:14;1.00;99.90
16485;DHT22;8353;47.856;12.344;2023-02-08T00:04:44;1.00;99.90
16485;DHT22;8353;47.856;12.344;2023-02-08T00:07:15;1.00;99.90
16485;DHT22;8353;47.856;12.344;2023-02-08T00:09:46;1.00;99.90
16485;DHT22;8353;47.856;12.344;2023-02-08T00:12:17;0.90;99.90
16485;DHT22;8353;47.856;12.344;2023-02-08T00:14:47;0.90;99.90
16485;DHT22;8353;47.856;12.344;2023-02-08T00:17:17;0.90;99.90
16485;DHT22;8353;47.856;12.344;2023-02-08T00:19:47;0.80;99.90
16485;DHT22;8353;47.856;12.344;2023-02-08T00:22:18;0.90;99.90
16485;DHT22;8353;47.856;12.344;2023-02-08T00:24:50;0.90;99.90
16485;DHT22;8353;47.856;12.344;2023-02-08T00:27:20;0.90;99.90
16485;DHT22;8353;47.856;12.344;2023-02-08T00:29:51;0.90;99.90
16485;DHT22;8353;47.856;12.344;2023-02-08T00:32:22;0.80;99.90
16485;DHT22;8353;47.856;12.344;2023-02-08T00:34:52;0.80;99.90
16485;DHT22;8353;47.856;12.344;2023-02-08T00:37:22;0.80;99.90
16485;DHT22;8353;47.856;12.344;2023-02-08T00:39:54;0.80;99.90
16485;DHT22;8353;47.856;12.344;2023-02-08T00:42:27;0.80;99.90
16485;DHT22;8353;47.856;12.344;2023-02-08T00:44:58;0.80;99.90
16485;DHT22;8353;47.856;12.344;2023-02-08T00:47:29;0.80;99.90
16485;DHT22;8353;47.856;12.344;2023-02-08T00:49:59;0.80;99.90
16485;DHT22;8353;47.856;12.344;2023-02-08T00:52:30;0.80;99.90
16485;DHT22;8353;47.856;12.344;2023-02-08T00:55:01;0.70;99.90
16485;DHT22;8353;47.856;12.344;2023-02-08T00:57:32;0.70;99.90
16485;DHT22;8353;47.856;12.344;2023-02-08T01:00:03;0.70;99.90
16485;DHT22;8353;47.856;12.344;2023-02-08T01:02:34;0.60;99.90
16485;DHT22;8353;47.856;12.344;2023-02-08T01:05:06;0.60;99.90
16485;DHT22;8353;47.856;12.344;2023-02-08T01:07:37;0.60;99.90
16485;DHT22;8353;47.856;12.344;2023-02-08T01:10:09;0.60;99.90
16485;DHT22;8353;47.856;12.344;2023-02-08T01:12:41;0.60;99.90
16485;DHT22;8353;47.856;12.344;2023-02-08T01:15:11;0.60;99.90
16485;DHT22;8353;47.856;12.344;2023-02-08T01:17:42;0.60;99.90
16485;DHT22;8353;47.856;12.344;2023-02-08T01:20:12;0.50;99.90
16485;DHT22;8353;47.856;12.344;2023-02-08T01:22:42;0.50;99.90
16485;DHT22;8353;47.856;12.344;2023-02-08T01:25:15;0.50;99.90
16485;DHT22;8353;47.856;12.344;2023-02-08T01:27:46;0.50;99.90
16485;DHT22;8353;47.856;12.344;2023-02-08T01:30:16;0.40;99.90
16485;DHT22;8353;47.856;12.344;2023-02-08T01:32:47;0.30;99.90
16485;DHT22;8353;47.856;12.344;2023-02-08T01:35:18;0.30;99.90
16485;DHT22;8353;47.856;12.344;2023-02-08T01:37:48;0.30;99.90
16485;DHT22;8353;47.856;12.344;2023-02-08T01:40:20;0.30;99.90
16485;DHT22;8353;47.856;12.344;2023-02-08T01:42:50;0.40;99.90
16485;DHT22;8353;47.856;12.344;2023-02-08T01:45:24;0.30;99.90
16485;DHT22;8353;47.856;12.344;2023-02-08T01:48:03;0.30;99.90
16485;DHT22;8353;47.856;12.344;2023-02-08T01:50:41;0.30;99.90
16485;DHT22;8353;47.856;12.344;2023-02-08T01:53:14;0.30;99.90
16485;DHT22;8353;47.856;12.344;2023-02-08T01:55:50;0.30;99.90
16485;DHT22;8353;47.856;12.344;2023-02-08T01:58:22;0.30;99.90
16485;DHT22;8353;47.856;12.344;2023-02-08T02:00:53;0.30;99.90
16485;DHT22;8353;47.856;12.344;2023-02-08T02:03:24;0.40;99.90
16485;DHT22;8353;47.856;12.344;2023-02-08T02:05:59;0.40;99.90
16485;DHT22;8353;47.856;12.344;2023-02-08T02:08:31;0.50;99.90
16485;DHT22;8353;47.856;12.344;2023-02-08T02:11:03;0.40;99.90
16485;DHT22;8353;47.856;12.344;2023-02-08T02:13:36;0.40;99.90
16485;DHT22;8353;47.856;12.344;2023-02-08T02:16:06;0.30;99.90
16485;DHT22;8353;47.856;12.344;2023-02-08T02:18:51;0.30;99.90
16485;DHT22;8353;47.856;12.344;2023-02-08T02:21:44;0.20;99.90
16485;DHT22;8353;47.856;12.344;2023-02-08T02:27:36;0.20;99.90
16485;DHT22;8353;47.856;12.344;2023-02-08T02:30:35;0.10;99.90
16485;DHT22;8353;47.856;12.344;2023-02-08T02:33:35;0.10;99.90
16485;DHT22;8353;47.856;12.344;2023-02-08T02:36:15;0.20;99.90
16485;DHT22;8353;47.856;12.344;2023-02-08T02:38:57;0.20;99.90
16485;DHT22;8353;47.856;12.344;2023-02-08T02:41:40;0.10;99.90
16485;DHT22;8353;47.856;12.344;2023-02-08T02:44:36;0.10;99.90
16485;DHT22;8353;47.856;12.344;2023-02-08T02:47:11;0.00;99.90
16485;DHT22;8353;47.856;12.344;2023-02-08T02:49:50;0.10;99.90
16485;DHT22;8353;47.856;12.344;2023-02-08T02:52:25;0.10;99.90
16485;DHT22;8353;47.856;12.344;2023-02-08T02:55:06;0.10;99.90
16485;DHT22;8353;47.856;12.344;2023-02-08T02:57:38;0.10;99.90
16485;DHT22;8353;47.856;12.344;2023-02-08T03:00:15;0.10;99.90
16485;DHT22;8353;47.856;12.344;2023-02-08T03:02:48;0.00;99.90
16485;DHT22;8353;47.856;12.344;2023-02-08T03:05:19;0.00;99.90
16485;DHT22;8353;47.856;12.344;2023-02-08T03:08:02;0.10;99.90
16485;DHT22;8353;47.856;12.344;2023-02-08T03:10:52;0.00;99.90
16485;DHT22;8353;47.856;12.344;2023-02-08T03:13:36;-0.10;99.90
16485;DHT22;8353;47.856;12.344;2023-02-08T03:16:16;0.00;99.90
16485;DHT22;8353;47.856;12.344;2023-02-08T03:18:59;0.00;99.90
16485;DHT22;8353;47.856;12.344;2023-02-08T03:21:39;0.00;99.90
16485;DHT22;8353;47.856;12.344;2023-02-08T03:24:22;0.00;99.90
16485;DHT22;8353;47.856;12.344;2023-02-08T03:26:57;0.00;99.90
16485;DHT22;8353;47.856;12.344;2023-02-08T03:29:39;0.10;99.90
16485;DHT22;8353;47.856;12.344;2023-02-08T03:32:15;0.00;99.90
16485;DHT22;8353;47.856;12.344;2023-02-08T03:34:51;0.00;99.90
16485;DHT22;8353;47.856;12.344;2023-02-08T03:37:26;-0.10;99.90
16485;DHT22;8353;47.856;12.344;2023-02-08T03:40:02;-0.20;99.90
16485;DHT22;8353;47.856;12.344;2023-02-08T03:42:37;-0.20;99.90
16485;DHT22;8353;47.856;12.344;2023-02-08T03:45:14;-0.20;99.90
16485;DHT22;8353;47.856;12.344;2023-02-08T03:47:48;-0.20;99.90
16485;DHT22;8353;47.856;12.344;2023-02-08T03:50:21;-0.20;99.90
16485;DHT22;8353;47.856;12.344;2023-02-08T03:52:54;-0.10;99.90
16485;DHT22;8353;47.856;12.344;2023-02-08T03:55:28;0.00;99.90
16485;DHT22;8353;47.856;12.344;2023-02-08T03:58:04;-0.10;99.90
16485;DHT22;8353;47.856;12.344;2023-02-08T04:00:39;-0.10;99.90
16485;DHT22;8353;47.856;12.344;2023-02-08T04:03:13;-0.10;99.90
16485;DHT22;8353;47.856;12.344;2023-02-08T04:05:44;-0.30;99.90
16485;DHT22;8353;47.856;12.344;2023-02-08T04:08:16;-0.40;99.90
16485;DHT22;8353;47.856;12.344;2023-02-08T04:10:47;-0.40;99.90
16485;DHT22;8353;47.856;12.344;2023-02-08T04:13:18;-0.30;99.90
16485;DHT22;8353;47.856;12.344;2023-02-08T04:15:48;-0.30;99.90
16485;DHT22;8353;47.856;12.344;2023-02-08T04:18:18;-0.30;99.90
16485;DHT22;8353;47.856;12.344;2023-02-08T04:20:49;-0.30;99.90
16485;DHT22;8353;47.856;12.344;2023-02-08T04:23:20;-0.30;99.90
16485;DHT22;8353;47.856;12.344;2023-02-08T04:25:50;-0.30;99.90
16485;DHT22;8353;47.856;12.344;2023-02-08T04:28:21;-0.50;99.90
16485;DHT22;8353;47.856;12.344;2023-02-08T04:30:53;-0.40;99.90
16485;DHT22;8353;47.856;12.344;2023-02-08T04:33:25;-0.30;99.90
16485;DHT22;8353;47.856;12.344;2023-02-08T04:35:56;-0.30;99.90
16485;DHT22;8353;47.856;12.344;2023-02-08T04:38:27;-0.30;99.90
16485;DHT22;8353;47.856;12.344;2023-02-08T04:40:57;-0.30;99.90
16485;DHT22;8353;47.856;12.344;2023-02-08T04:43:28;-0.50;99.90
16485;DHT22;8353;47.856;12.344;2023-02-08T04:45:59;-0.30;99.90
16485;DHT22;8353;47.856;12.344;2023-02-08T04:48:29;-0.30;99.90
16485;DHT22;8353;47.856;12.344;2023-02-08T04:51:00;-0.40;99.90
16485;DHT22;8353;47.856;12.344;2023-02-08T04:53:31;-0.30;99.90
16485;DHT22;8353;47.856;12.344;2023-02-08T04:56:02;-0.30;99.90
16485;DHT22;8353;47.856;12.344;2023-02-08T04:58:34;-0.30;99.90
16485;DHT22;8353;47.856;12.344;2023-02-08T05:01:05;-0.20;99.90
16485;DHT22;8353;47.856;12.344;2023-02-08T05:03:36;-0.30;99.90
16485;DHT22;8353;47.856;12.344;2023-02-08T05:06:07;-0.30;99.90
16485;DHT22;8353;47.856;12.344;2023-02-08T05:08:38;-0.30;99.90
16485;DHT22;8353;47.856;12.344;2023-02-08T05:11:09;-0.40;99.90
16485;DHT22;8353;47.856;12.344;2023-02-08T05:13:39;-0.40;99.90
16485;DHT22;8353;47.856;12.344;2023-02-08T05:16:09;-0.40;99.90
16485;DHT22;8353;47.856;12.344;2023-02-08T05:18:39;-0.30;99.90
16485;DHT22;8353;47.856;12.344;2023-02-08T05:21:10;-0.20;99.90
16485;DHT22;8353;47.856;12.344;2023-02-08T05:23:42;-0.20;99.90
16485;DHT22;8353;47.856;12.344;2023-02-08T05:26:13;-0.30;99.90
16485;DHT22;8353;47.856;12.344;2023-02-08T05:28:43;-0.30;99.90
16485;DHT22;8353;47.856;12.344;2023-02-08T05:31:16;-0.20;99.90
16485;DHT22;8353;47.856;12.344;2023-02-08T05:33:48;-0.30;99.90
16485;DHT22;8353;47.856;12.344;2023-02-08T05:36:18;-0.30;99.90
16485;DHT22;8353;47.856;12.344;2023-02-08T05:38:51;-0.30;99.90
16485;DHT22;8353;47.856;12.344;2023-02-08T05:41:21;-0.40;99.90
16485;DHT22;8353;47.856;12.344;2023-02-08T05:43:52;-0.30;99.90
16485;DHT22;8353;47.856;12.344;2023-02-08T05:46:22;-0.20;99.90
16485;DHT22;8353;47.856;12.344;2023-02-08T05:48:53;-0.30;99.90
16485;DHT22;8353;47.856;12.344;2023-02-08T05:51:23;-0.40;99.90
16485;DHT22;8353;47.856;12.344;2023-02-08T05:53:55;-0.40;99.90
16485;DHT22;8353;47.856;12.344;2023-02-08T05:56:25;-0.30;99.90
16485;DHT22;8353;47.856;12.344;2023-02-08T05:58:56;-0.40;99.90
16485;DHT22;8353;47.856;12.344;2023-02-08T06:01:29;-0.40;99.90
16485;DHT22;8353;47.856;12.344;2023-02-08T06:03:59;-0.30;99.90
16485;DHT22;8353;47.856;12.344;2023-02-08T06:06:30;-0.30;99.90
16485;DHT22;8353;47.856;12.344;2023-02-08T06:09:02;-0.60;99.90
16485;DHT22;8353;47.856;12.344;2023-02-08T06:11:33;-0.40;99.90
16485;DHT22;8353;47.856;12.344;2023-02-08T06:14:04;-0.50;99.90
16485;DHT22;8353;47.856;12.344;2023-02-08T06:16:35;-0.50;99.90
16485;DHT22;8353;47.856;12.344;2023-02-08T06:19:05;-0.40;99.90
16485;DHT22;8353;47.856;12.344;2023-02-08T06:21:36;-0.40;99.90
16485;DHT22;8353;47.856;12.344;2023-02-08T06:24:08;-0.40;99.90
16485;DHT22;8353;47.856;12.344;2023-02-08T06:26:39;-0.40;99.90
16485;DHT22;8353;47.856;12.344;2023-02-08T06:29:09;-0.50;99.90
16485;DHT22;8353;47.856;12.344;2023-02-08T06:31:40;-0.60;99.90
16485;DHT22;8353;47.856;12.344;2023-02-08T06:34:10;-0.50;99.90
16485;DHT22;8353;47.856;12.344;2023-02-08T06:36:40;-0.60;99.90
16485;DHT22;8353;47.856;12.344;2023-02-08T06:39:12;-0.70;99.90
16485;DHT22;8353;47.856;12.344;2023-02-08T06:41:43;-0.80;99.90
16485;DHT22;8353;47.856;12.344;2023-02-08T06:44:13;-0.80;99.90
16485;DHT22;8353;47.856;12.344;2023-02-08T06:46:43;-0.80;99.90
16485;DHT22;8353;47.856;12.344;2023-02-08T06:49:14;-0.80;99.90
16485;DHT22;8353;47.856;12.344;2023-02-08T06:51:45;-0.80;99.90
16485;DHT22;8353;47.856;12.344;2023-02-08T06:54:16;-1.00;99.90
16485;DHT22;8353;47.856;12.344;2023-02-08T06:56:47;-1.10;99.90
16485;DHT22;8353;47.856;12.344;2023-02-08T06:59:17;-1.10;99.90
16485;DHT22;8353;47.856;12.344;2023-02-08T07:01:48;-1.00;99.90
16485;DHT22;8353;47.856;12.344;2023-02-08T07:04:19;-1.10;99.90
16485;DHT22;8353;47.856;12.344;2023-02-08T07:06:49;-1.10;99.90
16485;DHT22;8353;47.856;12.344;2023-02-08T07:09:21;-1.10;99.90
16485;DHT22;8353;47.856;12.344;2023-02-08T07:11:52;-1.00;99.90
16485;DHT22;8353;47.856;12.344;2023-02-08T07:14:22;-1.20;99.90
16485;DHT22;8353;47.856;12.344;2023-02-08T07:16:53;-1.40;99.90
16485;DHT22;8353;47.856;12.344;2023-02-08T07:19:23;-1.20;99.90
16485;DHT22;8353;47.856;12.344;2023-02-08T07:21:54;-0.90;99.90
16485;DHT22;8353;47.856;12.344;2023-02-08T07:24:26;-0.70;99.90
16485;DHT22;8353;47.856;12.344;2023-02-08T07:26:56;-0.80;99.90
16485;DHT22;8353;47.856;12.344;2023-02-08T07:29:28;-1.10;99.90
16485;DHT22;8353;47.856;12.344;2023-02-08T07:31:59;-1.00;99.90
16485;DHT22;8353;47.856;12.344;2023-02-08T07:34:31;-1.00;99.90
16485;DHT22;8353;47.856;12.344;2023-02-08T07:37:03;-1.00;99.90
16485;DHT22;8353;47.856;12.344;2023-02-08T07:39:34;-1.10;99.90
16485;DHT22;8353;47.856;12.344;2023-02-08T07:42:04;-1.50;99.90
16485;DHT22;8353;47.856;12.344;2023-02-08T07:44:37;-1.40;99.90
16485;DHT22;8353;47.856;12.344;2023-02-08T07:47:08;-1.40;99.90
16485;DHT22;8353;47.856;12.344;2023-02-08T07:49:39;-1.10;99.90
16485;DHT22;8353;47.856;12.344;2023-02-08T07:52:09;-1.10;99.90
16485;DHT22;8353;47.856;12.344;2023-02-08T07:54:41;-1.10;99.90
16485;DHT22;8353;47.856;12.344;2023-02-08T07:57:11;-1.10;99.90
16485;DHT22;8353;47.856;12.344;2023-02-08T07:59:48;-1.20;99.90
16485;DHT22;8353;47.856;12.344;2023-02-08T08:02:19;-1.00;99.90
16485;DHT22;8353;47.856;12.344;2023-02-08T08:04:49;-1.10;99.90
16485;DHT22;8353;47.856;12.344;2023-02-08T08:07:22;-0.90;99.90
16485;DHT22;8353;47.856;12.344;2023-02-08T08:09:54;-0.80;99.90
16485;DHT22;8353;47.856;12.344;2023-02-08T08:12:24;-0.80;99.90
16485;DHT22;8353;47.856;12.344;2023-02-08T08:14:54;-1.00;99.90
16485;DHT22;8353;47.856;12.344;2023-02-08T08:17:25;-1.10;99.90
16485;DHT22;8353;47.856;12.344;2023-02-08T08:19:55;-0.90;99.90
16485;DHT22;8353;47.856;12.344;2023-02-08T08:22:26;-0.80;99.90
16485;DHT22;8353;47.856;12.344;2023-02-08T08:24:58;-0.60;99.90
16485;DHT22;8353;47.856;12.344;2023-02-08T08:27:28;-0.40;99.90
16485;DHT22;8353;47.856;12.344;2023-02-08T08:29:59;-0.20;99.90
16485;DHT22;8353;47.856;12.344;2023-02-08T08:32:30;-0.30;99.90
16485;DHT22;8353;47.856;12.344;2023-02-08T08:35:00;-0.30;99.90
16485;DHT22;8353;47.856;12.344;2023-02-08T08:37:31;-0.30;99.90
16485;DHT22;8353;47.856;12.344;2023-02-08T08:40:05;-0.20;99.90
16485;DHT22;8353;47.856;12.344;2023-02-08T08:42:36;-0.10;99.90
16485;DHT22;8353;47.856;12.344;2023-02-08T08:45:09;-0.10;99.90
16485;DHT22;8353;47.856;12.344;2023-02-08T08:47:40;-0.40;99.90
16485;DHT22;8353;47.856;12.344;2023-02-08T08:50:10;-0.30;99.90
16485;DHT22;8353;47.856;12.344;2023-02-08T08:52:41;-0.50;99.90
16485;DHT22;8353;47.856;12.344;2023-02-08T08:55:13;-0.40;99.90
16485;DHT22;8353;47.856;12.344;2023-02-08T08:57:43;-0.10;99.90
16485;DHT22;8353;47.856;12.344;2023-02-08T09:00:15;0.10;99.90
16485;DHT22;8353;47.856;12.344;2023-02-08T09:02:45;0.10;99.90
16485;DHT22;8353;47.856;12.344;2023-02-08T09:05:16;0.20;99.90
16485;DHT22;8353;47.856;12.344;2023-02-08T09:07:46;0.20;99.90
16485;DHT22;8353;47.856;12.344;2023-02-08T09:10:18;0.40;99.90
16485;DHT22;8353;47.856;12.344;2023-02-08T09:12:49;0.60;99.90
16485;DHT22;8353;47.856;12.344;2023-02-08T09:15:20;0.50;99.90
16485;DHT22;8353;47.856;12.344;2023-02-08T09:17:51;0.50;99.90
16485;DHT22;8353;47.856;12.344;2023-02-08T09:20:21;0.60;99.90
16485;DHT22;8353;47.856;12.344;2023-02-08T09:22:52;0.70;99.90
16485;DHT22;8353;47.856;12.344;2023-02-08T09:25:24;0.70;99.90
16485;DHT22;8353;47.856;12.344;2023-02-08T09:27:55;0.70;99.90
16485;DHT22;8353;47.856;12.344;2023-02-08T09:30:25;0.60;99.90
16485;DHT22;8353;47.856;12.344;2023-02-08T09:32:56;0.40;99.90
16485;DHT22;8353;47.856;12.344;2023-02-08T09:35:26;0.30;99.90
16485;DHT22;8353;47.856;12.344;2023-02-08T09:37:56;0.50;99.90
16485;DHT22;8353;47.856;12.344;2023-02-08T09:40:37;0.70;99.90
16485;DHT22;8353;47.856;12.344;2023-02-08T09:43:13;0.90;99.90
16485;DHT22;8353;47.856;12.344;2023-02-08T09:45:50;1.00;99.90
16485;DHT22;8353;47.856;12.344;2023-02-08T09:48:28;1.10;99.90
16485;DHT22;8353;47.856;12.344;2023-02-08T09:51:05;1.00;99.90
16485;DHT22;8353;47.856;12.344;2023-02-08T09:53:40;1.00;99.90
16485;DHT22;8353;47.856;12.344;2023-02-08T09:56:16;1.30;99.90
16485;DHT22;8353;47.856;12.344;2023-02-08T09:58:51;1.60;99.90
16485;DHT22;8353;47.856;12.344;2023-02-08T10:01:23;1.50;99.90
16485;DHT22;8353;47.856;12.344;2023-02-08T10:03:58;1.60;99.90
16485;DHT22;8353;47.856;12.344;2023-02-08T10:06:29;1.50;99.90
16485;DHT22;8353;47.856;12.344;2023-02-08T10:09:02;1.60;99.90
16485;DHT22;8353;47.856;12.344;2023-02-08T10:11:52;1.60;99.90
16485;DHT22;8353;47.856;12.344;2023-02-08T10:14:42;1.50;99.90
16485;DHT22;8353;47.856;12.344;2023-02-08T10:17:34;1.50;99.90
16485;DHT22;8353;47.856;12.344;2023-02-08T10:20:16;1.70;99.90
16485;DHT22;8353;47.856;12.344;2023-02-08T10:22:56;1.70;99.90
16485;DHT22;8353;47.856;12.344;2023-02-08T10:25:41;1.90;99.90
16485;DHT22;8353;47.856;12.344;2023-02-08T10:28:33;1.80;99.90
16485;DHT22;8353;47.856;12.344;2023-02-08T10:31:17;1.90;99.90
16485;DHT22;8353;47.856;12.344;2023-02-08T10:33:53;1.80;99.90
16485;DHT22;8353;47.856;12.344;2023-02-08T10:36:30;1.90;99.90
16485;DHT22;8353;47.856;12.344;2023-02-08T10:39:02;2.10;99.90
16485;DHT22;8353;47.856;12.344;2023-02-08T10:41:39;2.20;99.90
16485;DHT22;8353;47.856;12.344;2023-02-08T10:44:18;2.20;99.90
16485;DHT22;8353;47.856;12.344;2023-02-08T10:46:58;2.30;99.90
16485;DHT22;8353;47.856;12.344;2023-02-08T10:49:36;2.30;99.90
16485;DHT22;8353;47.856;12.344;2023-02-08T10:52:08;2.30;99.90
16485;DHT22;8353;47.856;12.344;2023-02-08T10:54:39;2.30;99.90
16485;DHT22;8353;47.856;12.344;2023-02-08T10:57:15;2.40;99.90
16485;DHT22;8353;47.856;12.344;2023-02-08T10:59:50;2.50;99.90
16485;DHT22;8353;47.856;12.344;2023-02-08T11:02:22;2.60;99.90
16485;DHT22;8353;47.856;12.344;2023-02-08T11:04:59;2.70;99.90
16485;DHT22;8353;47.856;12.344;2023-02-08T11:07:34;2.60;99.90
16485;DHT22;8353;47.856;12.344;2023-02-08T11:10:21;2.70;99.90
16485;DHT22;8353;47.856;12.344;2023-02-08T11:12:57;2.80;99.90
16485;DHT22;8353;47.856;12.344;2023-02-08T11:15:36;2.90;99.90
16485;DHT22;8353;47.856;12.344;2023-02-08T11:18:17;2.70;99.90
16485;DHT22;8353;47.856;12.344;2023-02-08T11:20:50;2.80;99.90
16485;DHT22;8353;47.856;12.344;2023-02-08T11:23:24;2.70;99.90
16485;DHT22;8353;47.856;12.344;2023-02-08T11:26:14;2.60;99.90
16485;DHT22;8353;47.856;12.344;2023-02-08T11:28:58;2.80;99.90
16485;DHT22;8353;47.856;12.344;2023-02-08T11:31:31;2.80;99.90
16485;DHT22;8353;47.856;12.344;2023-02-08T11:34:05;2.90;99.90
16485;DHT22;8353;47.856;12.344;2023-02-08T11:36:44;3.00;99.90
16485;DHT22;8353;47.856;12.344;2023-02-08T11:39:20;3.20;99.90
16485;DHT22;8353;47.856;12.344;2023-02-08T11:41:55;3.20;99.90
16485;DHT22;8353;47.856;12.344;2023-02-08T11:44:27;3.30;99.90
16485;DHT22;8353;47.856;12.344;2023-02-08T11:47:02;3.20;99.90
16485;DHT22;8353;47.856;12.344;2023-02-08T11:49:36;3.20;99.90
16485;DHT22;8353;47.856;12.344;2023-02-08T11:52:19;3.30;99.90
16485;DHT22;8353;47.856;12.344;2023-02-08T11:54:51;3.50;99.90
16485;DHT22;8353;47.856;12.344;2023-02-08T11:57:23;3.60;99.90
16485;DHT22;8353;47.856;12.344;2023-02-08T12:00:11;3.60;99.90
16485;DHT22;8353;47.856;12.344;2023-02-08T12:02:49;3.30;99.90
16485;DHT22;8353;47.856;12.344;2023-02-08T12:05:26;3.30;99.90
16485;DHT22;8353;47.856;12.344;2023-02-08T12:08:05;3.30;99.90
16485;DHT22;8353;47.856;12.344;2023-02-08T12:11:03;3.40;99.90
16485;DHT22;8353;47.856;12.344;2023-02-08T12:13:53;3.50;99.90
16485;DHT22;8353;47.856;12.344;2023-02-08T12:16:47;3.60;99.90
16485;DHT22;8353;47.856;12.344;2023-02-08T12:22:36;3.80;99.90
16485;DHT22;8353;47.856;12.344;2023-02-08T12:25:20;4.00;99.90
16485;DHT22;8353;47.856;12.344;2023-02-08T12:27:58;3.90;99.90
16485;DHT22;8353;47.856;12.344;2023-02-08T12:30:33;3.90;99.90
16485;DHT22;8353;47.856;12.344;2023-02-08T12:33:29;3.80;99.90
16485;DHT22;8353;47.856;12.344;2023-02-08T12:36:22;3.80;99.90
16485;DHT22;8353;47.856;12.344;2023-02-08T12:39:05;3.70;99.90
16485;DHT22;8353;47.856;12.344;2023-02-08T12:42:15;3.80;99.90
16485;DHT22;8353;47.856;12.344;2023-02-08T12:45:00;4.00;99.90
16485;DHT22;8353;47.856;12.344;2023-02-08T12:47:44;3.90;99.90
16485;DHT22;8353;47.856;12.344;2023-02-08T12:50:20;4.10;99.90
16485;DHT22;8353;47.856;12.344;2023-02-08T12:52:57;4.00;99.90
16485;DHT22;8353;47.856;12.344;2023-02-08T12:55:34;4.00;99.90
16485;DHT22;8353;47.856;12.344;2023-02-08T12:58:24;3.90;99.90
16485;DHT22;8353;47.856;12.344;2023-02-08T13:00:59;3.90;99.90
16485;DHT22;8353;47.856;12.344;2023-02-08T13:03:34;3.90;99.90
16485;DHT22;8353;47.856;12.344;2023-02-08T13:06:07;3.80;99.90
16485;DHT22;8353;47.856;12.344;2023-02-08T13:08:46;4.00;99.90
16485;DHT22;8353;47.856;12.344;2023-02-08T13:11:24;4.10;99.90
16485;DHT22;8353;47.856;12.344;2023-02-08T13:14:00;4.20;99.90
16485;DHT22;8353;47.856;12.344;2023-02-08T13:16:34;4.10;99.90
16485;DHT22;8353;47.856;12.344;2023-02-08T13:19:22;4.00;99.90
16485;DHT22;8353;47.856;12.344;2023-02-08T13:21:54;4.00;99.90
16485;DHT22;8353;47.856;12.344;2023-02-08T13:24:29;4.10;99.90
16485;DHT22;8353;47.856;12.344;2023-02-08T13:27:03;3.90;99.90
16485;DHT22;8353;47.856;12.344;2023-02-08T13:29:36;3.90;99.90
16485;DHT22;8353;47.856;12.344;2023-02-08T13:32:10;4.10;99.90
16485;DHT22;8353;47.856;12.344;2023-02-08T13:34:45;4.30;99.90
16485;DHT22;8353;47.856;12.344;2023-02-08T13:37:21;4.40;99.90
16485;DHT22;8353;47.856;12.344;2023-02-08T13:39:58;4.40;99.90
16485;DHT22;8353;47.856;12.344;2023-02-08T13:42:34;4.20;99.90
16485;DHT22;8353;47.856;12.344;2023-02-08T13:45:07;4.20;99.90
16485;DHT22;8353;47.856;12.344;2023-02-08T13:47:42;4.40;99.90
16485;DHT22;8353;47.856;12.344;2023-02-08T13:50:39;4.60;99.90
16485;DHT22;8353;47.856;12.344;2023-02-08T13:53:10;4.30;99.90
16485;DHT22;8353;47.856;12.344;2023-02-08T13:55:55;4.20;99.90
16485;DHT22;8353;47.856;12.344;2023-02-08T14:01:34;4.30;99.90
16485;DHT22;8353;47.856;12.344;2023-02-08T14:07:13;4.50;99.90
16485;DHT22;8353;47.856;12.344;2023-02-08T14:10:01;4.30;99.90
16485;DHT22;8353;47.856;12.344;2023-02-08T14:12:37;4.40;99.90
16485;DHT22;8353;47.856;12.344;2023-02-08T14:15:30;4.40;99.90
16485;DHT22;8353;47.856;12.344;2023-02-08T14:18:01;4.50;99.90
16485;DHT22;8353;47.856;12.344;2023-02-08T14:20:35;4.70;99.90
16485;DHT22;8353;47.856;12.344;2023-02-08T14:23:21;4.90;99.90
16485;DHT22;8353;47.856;12.344;2023-02-08T14:25:54;4.80;99.90
16485;DHT22;8353;47.856;12.344;2023-02-08T14:28:29;4.50;99.90
16485;DHT22;8353;47.856;12.344;2023-02-08T14:31:05;4.50;99.90
16485;DHT22;8353;47.856;12.344;2023-02-08T14:33:38;4.70;99.90
16485;DHT22;8353;47.856;12.344;2023-02-08T14:36:26;4.40;99.90
16485;DHT22;8353;47.856;12.344;2023-02-08T14:39:25;4.60;99.90
16485;DHT22;8353;47.856;12.344;2023-02-08T14:41:58;4.70;99.90
16485;DHT22;8353;47.856;12.344;2023-02-08T14:44:59;4.60;99.90
16485;DHT22;8353;47.856;12.344;2023-02-08T14:51:01;4.60;99.90
16485;DHT22;8353;47.856;12.344;2023-02-08T14:53:41;4.50;99.90
16485;DHT22;8353;47.856;12.344;2023-02-08T14:56:15;4.60;99.90
16485;DHT22;8353;47.856;12.344;2023-02-08T14:58:49;4.60;99.90
16485;DHT22;8353;47.856;12.344;2023-02-08T15:01:26;4.80;99.90
16485;DHT22;8353;47.856;12.344;2023-02-08T15:03:59;4.80;99.90
16485;DHT22;8353;47.856;12.344;2023-02-08T15:07:01;4.60;99.90
16485;DHT22;8353;47.856;12.344;2023-02-08T15:09:36;4.40;99.90
16485;DHT22;8353;47.856;12.344;2023-02-08T15:12:14;4.50;99.90
16485;DHT22;8353;47.856;12.344;2023-02-08T15:14:47;4.60;99.90
16485;DHT22;8353;47.856;12.344;2023-02-08T15:17:25;4.30;99.90
16485;DHT22;8353;47.856;12.344;2023-02-08T15:19:59;4.10;99.90
16485;DHT22;8353;47.856;12.344;2023-02-08T15:22:33;4.10;99.90
16485;DHT22;8353;47.856;12.344;2023-02-08T15:25:20;4.30;99.90
16485;DHT22;8353;47.856;12.344;2023-02-08T15:27:53;4.20;99.90
16485;DHT22;8353;47.856;12.344;2023-02-08T15:30:27;4.10;99.90
16485;DHT22;8353;47.856;12.344;2023-02-08T15:32:59;4.10;99.90
16485;DHT22;8353;47.856;12.344;2023-02-08T15:35:32;4.10;99.90
16485;DHT22;8353;47.856;12.344;2023-02-08T15:38:12;4.10;99.90
16485;DHT22;8353;47.856;12.344;2023-02-08T15:40:59;3.80;99.90
16485;DHT22;8353;47.856;12.344;2023-02-08T15:43:32;3.80;99.90
16485;DHT22;8353;47.856;12.344;2023-02-08T15:46:05;3.80;99.90
16485;DHT22;8353;47.856;12.344;2023-02-08T15:48:38;4.00;99.90
16485;DHT22;8353;47.856;12.344;2023-02-08T15:51:11;3.90;99.90
16485;DHT22;8353;47.856;12.344;2023-02-08T15:53:46;3.90;99.90
16485;DHT22;8353;47.856;12.344;2023-02-08T15:56:21;3.80;99.90
16485;DHT22;8353;47.856;12.344;2023-02-08T15:58:55;3.70;99.90
16485;DHT22;8353;47.856;12.344;2023-02-08T16:01:27;3.60;99.90
16485;DHT22;8353;47.856;12.344;2023-02-08T16:04:02;3.50;99.90
16485;DHT22;8353;47.856;12.344;2023-02-08T16:06:36;3.30;99.90
16485;DHT22;8353;47.856;12.344;2023-02-08T16:09:16;3.10;99.90
16485;DHT22;8353;47.856;12.344;2023-02-08T16:11:48;3.00;99.90
16485;DHT22;8353;47.856;12.344;2023-02-08T16:14:21;2.90;99.90
16485;DHT22;8353;47.856;12.344;2023-02-08T16:16:53;2.70;99.90
16485;DHT22;8353;47.856;12.344;2023-02-08T16:19:26;2.70;99.90
16485;DHT22;8353;47.856;12.344;2023-02-08T16:22:22;2.60;99.90
16485;DHT22;8353;47.856;12.344;2023-02-08T16:28:23;2.40;99.90
16485;DHT22;8353;47.856;12.344;2023-02-08T16:30:55;2.50;99.90
16485;DHT22;8353;47.856;12.344;2023-02-08T16:33:26;2.40;99.90
16485;DHT22;8353;47.856;12.344;2023-02-08T16:35:59;2.30;99.90
16485;DHT22;8353;47.856;12.344;2023-02-08T16:38:32;2.40;99.90
16485;DHT22;8353;47.856;12.344;2023-02-08T16:41:08;2.60;99.90
16485;DHT22;8353;47.856;12.344;2023-02-08T16:43:42;2.60;99.90
16485;DHT22;8353;47.856;12.344;2023-02-08T16:46:18;2.60;99.90
16485;DHT22;8353;47.856;12.344;2023-02-08T16:48:52;2.40;99.90